sensor_id;sensor_type;location;lat;lon;timestamp;P1;durP1;ratioP1;P2;durP2;ratioP2
830;SDS011;397;50.564;7.272;2023-03-01T00:01:15;16.30;;;10.63;;
830;SDS011;397;50.564;7.272;2023-03-01T00:03:44;13.90;;;11.57;;
830;SDS011;397;50.564;7.272;2023-03-01T00:06:12;13.10;;;11.30;;
830;SDS011;397;50.564;7.272;2023-03-01T00:08:40;14.50;;;11.23;;
830;SDS011;397;50.564;7.272;2023-03-01T00:11:09;14.50;;;11.50;;
830;SDS011;397;50.564;7.272;2023-03-01T00:13:41;12.87;;;10.30;;
830;SDS011;397;50.564;7.272;2023-03-01T00:16:10;11.50;;;10.23;;
830;SDS011;397;50.564;7.272;2023-03-01T00:18:40;12.03;;;9.67;;
830;SDS011;397;50.564;7.272;2023-03-01T00:21:07;13.40;;;10.60;;
830;SDS011;397;50.564;7.272;2023-03-01T00:23:36;15.00;;;12.07;;
830;SDS011;397;50.564;7.272;2023-03-01T00:26:10;16.47;;;13.03;;
830;SDS011;397;50.564;7.272;2023-03-01T00:28:40;14.30;;;12.07;;
830;SDS011;397;50.564;7.272;2023-03-01T00:31:13;16.67;;;12.00;;
830;SDS011;397;50.564;7.272;2023-03-01T00:33:39;18.03;;;11.67;;
830;SDS011;397;50.564;7.272;2023-03-01T00:36:07;16.47;;;12.17;;
830;SDS011;397;50.564;7.272;2023-03-01T00:38:35;16.60;;;12.67;;
830;SDS011;397;50.564;7.272;2023-03-01T00:41:04;17.43;;;12.80;;
830;SDS011;397;50.564;7.272;2023-03-01T00:43:33;14.97;;;12.67;;
830;SDS011;397;50.564;7.272;2023-03-01T00:46:03;14.40;;;10.47;;
830;SDS011;397;50.564;7.272;2023-03-01T00:48:36;18.60;;;13.73;;
830;SDS011;397;50.564;7.272;2023-03-01T00:51:07;11.50;;;9.00;;
830;SDS011;397;50.564;7.272;2023-03-01T00:53:40;12.30;;;9.87;;
830;SDS011;397;50.564;7.272;2023-03-01T00:56:09;13.40;;;10.37;;
830;SDS011;397;50.564;7.272;2023-03-01T00:58:37;16.07;;;12.63;;
830;SDS011;397;50.564;7.272;2023-03-01T01:01:14;14.67;;;11.73;;
830;SDS011;397;50.564;7.272;2023-03-01T01:03:45;15.70;;;12.20;;
830;SDS011;397;50.564;7.272;2023-03-01T01:06:15;22.20;;;13.03;;
830;SDS011;397;50.564;7.272;2023-03-01T01:08:46;14.70;;;12.90;;
830;SDS011;397;50.564;7.272;2023-03-01T01:11:15;17.17;;;13.97;;
830;SDS011;397;50.564;7.272;2023-03-01T01:13:44;15.90;;;11.80;;
830;SDS011;397;50.564;7.272;2023-03-01T01:16:13;19.03;;;14.00;;
830;SDS011;397;50.564;7.272;2023-03-01T01:18:42;15.73;;;13.07;;
830;SDS011;397;50.564;7.272;2023-03-01T01:21:11;18.97;;;13.63;;
830;SDS011;397;50.564;7.272;2023-03-01T01:23:41;16.97;;;14.47;;
830;SDS011;397;50.564;7.272;2023-03-01T01:26:12;15.90;;;12.73;;
830;SDS011;397;50.564;7.272;2023-03-01T01:28:41;18.93;;;12.10;;
830;SDS011;397;50.564;7.272;2023-03-01T01:31:08;17.17;;;13.70;;
830;SDS011;397;50.564;7.272;2023-03-01T01:33:36;17.10;;;13.23;;
830;SDS011;397;50.564;7.272;2023-03-01T01:36:04;20.10;;;14.60;;
830;SDS011;397;50.564;7.272;2023-03-01T01:38:33;18.60;;;14.07;;
830;SDS011;397;50.564;7.272;2023-03-01T01:41:02;17.67;;;13.63;;
830;SDS011;397;50.564;7.272;2023-03-01T01:43:34;18.47;;;14.23;;
830;SDS011;397;50.564;7.272;2023-03-01T01:48:52;17.13;;;13.00;;
830;SDS011;397;50.564;7.272;2023-03-01T01:51:24;20.67;;;13.60;;
830;SDS011;397;50.564;7.272;2023-03-01T01:53:59;16.23;;;12.67;;
830;SDS011;397;50.564;7.272;2023-03-01T01:56:25;17.13;;;13.23;;
830;SDS011;397;50.564;7.272;2023-03-01T01:58:54;16.20;;;12.53;;
830;SDS011;397;50.564;7.272;2023-03-01T02:01:22;16.80;;;12.10;;
830;SDS011;397;50.564;7.272;2023-03-01T02:03:50;15.90;;;12.53;;
830;SDS011;397;50.564;7.272;2023-03-01T02:06:21;13.90;;;12.23;;
830;SDS011;397;50.564;7.272;2023-03-01T02:08:55;18.60;;;13.63;;
830;SDS011;397;50.564;7.272;2023-03-01T02:11:25;15.50;;;12.83;;
830;SDS011;397;50.564;7.272;2023-03-01T02:13:55;17.17;;;12.10;;
830;SDS011;397;50.564;7.272;2023-03-01T02:16:23;15.87;;;12.20;;
830;SDS011;397;50.564;7.272;2023-03-01T02:18:53;19.43;;;12.17;;
830;SDS011;397;50.564;7.272;2023-03-01T02:23:59;13.40;;;11.03;;
830;SDS011;397;50.564;7.272;2023-03-01T02:26:37;13.97;;;12.33;;
830;SDS011;397;50.564;7.272;2023-03-01T02:29:02;16.07;;;10.70;;
830;SDS011;397;50.564;7.272;2023-03-01T02:31:31;13.57;;;11.17;;
830;SDS011;397;50.564;7.272;2023-03-01T02:36:52;16.47;;;11.80;;
830;SDS011;397;50.564;7.272;2023-03-01T02:39:36;13.40;;;10.93;;
830;SDS011;397;50.564;7.272;2023-03-01T02:42:06;15.50;;;11.43;;
830;SDS011;397;50.564;7.272;2023-03-01T02:44:35;12.60;;;11.03;;
830;SDS011;397;50.564;7.272;2023-03-01T02:47:03;19.93;;;14.50;;
830;SDS011;397;50.564;7.272;2023-03-01T02:49:32;15.20;;;10.87;;
830;SDS011;397;50.564;7.272;2023-03-01T02:52:19;17.00;;;12.80;;
830;SDS011;397;50.564;7.272;2023-03-01T02:57:33;21.87;;;12.63;;
830;SDS011;397;50.564;7.272;2023-03-01T03:00:08;14.77;;;11.27;;
830;SDS011;397;50.564;7.272;2023-03-01T03:02:41;13.90;;;11.60;;
830;SDS011;397;50.564;7.272;2023-03-01T03:05:14;17.80;;;11.40;;
830;SDS011;397;50.564;7.272;2023-03-01T03:07:40;13.60;;;10.83;;
830;SDS011;397;50.564;7.272;2023-03-01T03:10:12;15.97;;;12.20;;
830;SDS011;397;50.564;7.272;2023-03-01T03:12:41;14.43;;;11.10;;
830;SDS011;397;50.564;7.272;2023-03-01T03:15:09;14.43;;;12.00;;
830;SDS011;397;50.564;7.272;2023-03-01T03:17:38;14.20;;;11.20;;
830;SDS011;397;50.564;7.272;2023-03-01T03:20:08;16.90;;;12.67;;
830;SDS011;397;50.564;7.272;2023-03-01T03:22:38;15.97;;;11.67;;
830;SDS011;397;50.564;7.272;2023-03-01T03:25:07;13.40;;;11.00;;
830;SDS011;397;50.564;7.272;2023-03-01T03:27:38;11.63;;;10.43;;
830;SDS011;397;50.564;7.272;2023-03-01T03:30:09;15.70;;;11.83;;
830;SDS011;397;50.564;7.272;2023-03-01T03:32:44;12.97;;;10.77;;
830;SDS011;397;50.564;7.272;2023-03-01T03:35:10;11.43;;;10.23;;
830;SDS011;397;50.564;7.272;2023-03-01T03:37:38;19.03;;;12.07;;
830;SDS011;397;50.564;7.272;2023-03-01T03:40:26;15.60;;;11.97;;
830;SDS011;397;50.564;7.272;2023-03-01T03:42:55;17.60;;;12.03;;
830;SDS011;397;50.564;7.272;2023-03-01T03:45:23;16.07;;;12.10;;
830;SDS011;397;50.564;7.272;2023-03-01T03:47:51;14.30;;;10.53;;
830;SDS011;397;50.564;7.272;2023-03-01T03:50:18;13.97;;;12.00;;
830;SDS011;397;50.564;7.272;2023-03-01T03:52:46;15.50;;;11.07;;
830;SDS011;397;50.564;7.272;2023-03-01T03:55:13;20.80;;;11.97;;
830;SDS011;397;50.564;7.272;2023-03-01T03:57:42;15.23;;;10.60;;
830;SDS011;397;50.564;7.272;2023-03-01T04:00:11;16.10;;;11.40;;
830;SDS011;397;50.564;7.272;2023-03-01T04:02:39;18.30;;;11.97;;
830;SDS011;397;50.564;7.272;2023-03-01T04:05:09;14.20;;;11.00;;
830;SDS011;397;50.564;7.272;2023-03-01T04:07:38;16.30;;;11.33;;
830;SDS011;397;50.564;7.272;2023-03-01T04:10:07;14.23;;;10.50;;
830;SDS011;397;50.564;7.272;2023-03-01T04:12:37;13.03;;;10.63;;
830;SDS011;397;50.564;7.272;2023-03-01T04:15:05;13.87;;;12.10;;
830;SDS011;397;50.564;7.272;2023-03-01T04:17:39;16.77;;;10.47;;
830;SDS011;397;50.564;7.272;2023-03-01T04:20:13;14.13;;;10.60;;
830;SDS011;397;50.564;7.272;2023-03-01T04:22:38;13.13;;;11.07;;
830;SDS011;397;50.564;7.272;2023-03-01T04:25:07;17.40;;;11.53;;
830;SDS011;397;50.564;7.272;2023-03-01T04:27:36;12.70;;;10.10;;
830;SDS011;397;50.564;7.272;2023-03-01T04:30:04;11.97;;;10.67;;
830;SDS011;397;50.564;7.272;2023-03-01T04:32:32;11.17;;;9.87;;
830;SDS011;397;50.564;7.272;2023-03-01T04:34:59;16.13;;;11.37;;
830;SDS011;397;50.564;7.272;2023-03-01T04:37:27;13.87;;;10.67;;
830;SDS011;397;50.564;7.272;2023-03-01T04:39:55;15.90;;;11.17;;
830;SDS011;397;50.564;7.272;2023-03-01T04:42:23;16.43;;;11.13;;
830;SDS011;397;50.564;7.272;2023-03-01T04:44:50;14.70;;;10.60;;
830;SDS011;397;50.564;7.272;2023-03-01T04:47:18;12.07;;;10.80;;
830;SDS011;397;50.564;7.272;2023-03-01T04:49:45;14.60;;;11.53;;
830;SDS011;397;50.564;7.272;2023-03-01T04:52:12;16.20;;;12.10;;
830;SDS011;397;50.564;7.272;2023-03-01T04:54:40;15.37;;;11.33;;
830;SDS011;397;50.564;7.272;2023-03-01T04:57:08;16.57;;;11.03;;
830;SDS011;397;50.564;7.272;2023-03-01T04:59:36;17.57;;;13.03;;
830;SDS011;397;50.564;7.272;2023-03-01T05:02:03;17.40;;;12.50;;
830;SDS011;397;50.564;7.272;2023-03-01T05:04:31;18.83;;;12.17;;
830;SDS011;397;50.564;7.272;2023-03-01T05:06:58;14.53;;;11.83;;
830;SDS011;397;50.564;7.272;2023-03-01T05:09:26;13.37;;;11.07;;
830;SDS011;397;50.564;7.272;2023-03-01T05:11:53;17.10;;;11.57;;
830;SDS011;397;50.564;7.272;2023-03-01T05:14:21;13.57;;;11.50;;
830;SDS011;397;50.564;7.272;2023-03-01T05:16:48;16.60;;;11.97;;
830;SDS011;397;50.564;7.272;2023-03-01T05:19:16;13.53;;;10.40;;
830;SDS011;397;50.564;7.272;2023-03-01T05:21:45;18.43;;;12.70;;
830;SDS011;397;50.564;7.272;2023-03-01T05:24:30;18.23;;;14.50;;
830;SDS011;397;50.564;7.272;2023-03-01T05:27:00;18.03;;;15.00;;
830;SDS011;397;50.564;7.272;2023-03-01T05:29:29;23.17;;;15.30;;
830;SDS011;397;50.564;7.272;2023-03-01T05:32:00;21.20;;;14.40;;
830;SDS011;397;50.564;7.272;2023-03-01T05:34:29;17.40;;;14.17;;
830;SDS011;397;50.564;7.272;2023-03-01T05:36:59;18.73;;;14.00;;
830;SDS011;397;50.564;7.272;2023-03-01T05:39:27;18.20;;;14.43;;
830;SDS011;397;50.564;7.272;2023-03-01T05:41:58;13.23;;;11.77;;
830;SDS011;397;50.564;7.272;2023-03-01T05:44:27;14.53;;;11.70;;
830;SDS011;397;50.564;7.272;2023-03-01T05:46:55;19.33;;;12.57;;
830;SDS011;397;50.564;7.272;2023-03-01T05:49:23;15.83;;;12.57;;
830;SDS011;397;50.564;7.272;2023-03-01T05:51:52;18.03;;;13.17;;
830;SDS011;397;50.564;7.272;2023-03-01T05:54:21;17.53;;;12.53;;
830;SDS011;397;50.564;7.272;2023-03-01T05:56:49;15.27;;;12.20;;
830;SDS011;397;50.564;7.272;2023-03-01T05:59:16;15.97;;;12.83;;
830;SDS011;397;50.564;7.272;2023-03-01T06:01:44;14.80;;;12.13;;
830;SDS011;397;50.564;7.272;2023-03-01T06:04:11;16.27;;;12.60;;
830;SDS011;397;50.564;7.272;2023-03-01T06:06:39;13.00;;;10.97;;
830;SDS011;397;50.564;7.272;2023-03-01T06:09:06;15.50;;;13.13;;
830;SDS011;397;50.564;7.272;2023-03-01T06:11:36;19.57;;;12.57;;
830;SDS011;397;50.564;7.272;2023-03-01T06:14:04;19.70;;;14.00;;
830;SDS011;397;50.564;7.272;2023-03-01T06:16:33;15.17;;;11.83;;
830;SDS011;397;50.564;7.272;2023-03-01T06:19:01;14.87;;;12.07;;
830;SDS011;397;50.564;7.272;2023-03-01T06:21:28;18.47;;;13.80;;
830;SDS011;397;50.564;7.272;2023-03-01T06:23:56;17.53;;;12.97;;
830;SDS011;397;50.564;7.272;2023-03-01T06:26:23;21.10;;;13.10;;
830;SDS011;397;50.564;7.272;2023-03-01T06:28:51;16.47;;;12.10;;
830;SDS011;397;50.564;7.272;2023-03-01T06:31:18;21.20;;;15.57;;
830;SDS011;397;50.564;7.272;2023-03-01T06:33:46;16.40;;;13.90;;
830;SDS011;397;50.564;7.272;2023-03-01T06:36:13;17.27;;;14.80;;
830;SDS011;397;50.564;7.272;2023-03-01T06:38:42;17.63;;;14.00;;
830;SDS011;397;50.564;7.272;2023-03-01T06:41:10;17.53;;;14.70;;
830;SDS011;397;50.564;7.272;2023-03-01T06:43:37;19.40;;;13.80;;
830;SDS011;397;50.564;7.272;2023-03-01T06:46:05;17.73;;;13.10;;
830;SDS011;397;50.564;7.272;2023-03-01T06:48:33;18.93;;;14.07;;
830;SDS011;397;50.564;7.272;2023-03-01T06:51:00;20.07;;;16.00;;
830;SDS011;397;50.564;7.272;2023-03-01T06:53:28;23.83;;;16.80;;
830;SDS011;397;50.564;7.272;2023-03-01T06:55:56;19.47;;;14.97;;
830;SDS011;397;50.564;7.272;2023-03-01T06:58:26;23.83;;;16.03;;
830;SDS011;397;50.564;7.272;2023-03-01T07:00:53;16.50;;;14.23;;
830;SDS011;397;50.564;7.272;2023-03-01T07:03:21;19.70;;;14.70;;
830;SDS011;397;50.564;7.272;2023-03-01T07:05:49;18.77;;;13.30;;
830;SDS011;397;50.564;7.272;2023-03-01T07:08:18;17.67;;;15.30;;
830;SDS011;397;50.564;7.272;2023-03-01T07:10:46;20.03;;;14.30;;
830;SDS011;397;50.564;7.272;2023-03-01T07:13:13;17.67;;;15.73;;
830;SDS011;397;50.564;7.272;2023-03-01T07:15:40;21.67;;;15.80;;
830;SDS011;397;50.564;7.272;2023-03-01T07:18:08;31.20;;;16.40;;
830;SDS011;397;50.564;7.272;2023-03-01T07:20:35;22.40;;;15.03;;
830;SDS011;397;50.564;7.272;2023-03-01T07:23:03;23.70;;;15.17;;
830;SDS011;397;50.564;7.272;2023-03-01T07:25:33;30.00;;;17.33;;
830;SDS011;397;50.564;7.272;2023-03-01T07:28:01;21.40;;;16.23;;
830;SDS011;397;50.564;7.272;2023-03-01T07:30:28;16.93;;;14.33;;
830;SDS011;397;50.564;7.272;2023-03-01T07:32:57;20.10;;;16.53;;
830;SDS011;397;50.564;7.272;2023-03-01T07:35:25;20.77;;;14.20;;
830;SDS011;397;50.564;7.272;2023-03-01T07:37:53;18.10;;;14.10;;
830;SDS011;397;50.564;7.272;2023-03-01T07:40:21;19.73;;;15.10;;
830;SDS011;397;50.564;7.272;2023-03-01T07:42:48;20.83;;;15.83;;
830;SDS011;397;50.564;7.272;2023-03-01T07:45:18;21.63;;;15.93;;
830;SDS011;397;50.564;7.272;2023-03-01T07:47:45;23.97;;;15.30;;
830;SDS011;397;50.564;7.272;2023-03-01T07:50:13;19.50;;;13.77;;
830;SDS011;397;50.564;7.272;2023-03-01T07:52:41;19.60;;;13.47;;
830;SDS011;397;50.564;7.272;2023-03-01T07:55:09;21.17;;;14.17;;
830;SDS011;397;50.564;7.272;2023-03-01T07:57:36;16.47;;;13.40;;
830;SDS011;397;50.564;7.272;2023-03-01T08:00:05;18.70;;;13.50;;
830;SDS011;397;50.564;7.272;2023-03-01T08:02:33;15.90;;;13.00;;
830;SDS011;397;50.564;7.272;2023-03-01T08:05:01;19.27;;;13.97;;
830;SDS011;397;50.564;7.272;2023-03-01T08:07:29;16.70;;;14.93;;
830;SDS011;397;50.564;7.272;2023-03-01T08:09:56;16.27;;;13.77;;
830;SDS011;397;50.564;7.272;2023-03-01T08:12:23;15.20;;;11.87;;
830;SDS011;397;50.564;7.272;2023-03-01T08:14:53;15.77;;;14.10;;
830;SDS011;397;50.564;7.272;2023-03-01T08:17:20;16.03;;;13.73;;
830;SDS011;397;50.564;7.272;2023-03-01T08:19:48;13.73;;;12.33;;
830;SDS011;397;50.564;7.272;2023-03-01T08:22:16;17.10;;;13.57;;
830;SDS011;397;50.564;7.272;2023-03-01T08:24:43;24.63;;;13.60;;
830;SDS011;397;50.564;7.272;2023-03-01T08:27:11;14.27;;;12.80;;
830;SDS011;397;50.564;7.272;2023-03-01T08:29:39;20.73;;;14.17;;
830;SDS011;397;50.564;7.272;2023-03-01T08:32:06;20.43;;;13.97;;
830;SDS011;397;50.564;7.272;2023-03-01T08:34:34;13.77;;;11.83;;
830;SDS011;397;50.564;7.272;2023-03-01T08:37:01;16.53;;;12.63;;
830;SDS011;397;50.564;7.272;2023-03-01T08:39:29;18.67;;;13.47;;
830;SDS011;397;50.564;7.272;2023-03-01T08:41:56;19.30;;;14.70;;
830;SDS011;397;50.564;7.272;2023-03-01T08:44:24;18.73;;;15.87;;
830;SDS011;397;50.564;7.272;2023-03-01T08:46:51;17.07;;;13.60;;
830;SDS011;397;50.564;7.272;2023-03-01T08:49:20;15.17;;;13.57;;
830;SDS011;397;50.564;7.272;2023-03-01T08:51:48;15.40;;;12.30;;
830;SDS011;397;50.564;7.272;2023-03-01T08:54:21;17.00;;;15.20;;
830;SDS011;397;50.564;7.272;2023-03-01T08:56:46;17.33;;;14.97;;
830;SDS011;397;50.564;7.272;2023-03-01T08:59:17;19.67;;;15.57;;
830;SDS011;397;50.564;7.272;2023-03-01T09:01:45;18.00;;;14.60;;
830;SDS011;397;50.564;7.272;2023-03-01T09:04:12;20.10;;;14.20;;
830;SDS011;397;50.564;7.272;2023-03-01T09:06:42;18.90;;;14.63;;
830;SDS011;397;50.564;7.272;2023-03-01T09:09:13;16.57;;;14.77;;
830;SDS011;397;50.564;7.272;2023-03-01T09:11:42;16.17;;;14.10;;
830;SDS011;397;50.564;7.272;2023-03-01T09:14:12;16.53;;;14.50;;
830;SDS011;397;50.564;7.272;2023-03-01T09:16:40;19.40;;;14.70;;
830;SDS011;397;50.564;7.272;2023-03-01T09:19:08;18.70;;;15.13;;
830;SDS011;397;50.564;7.272;2023-03-01T09:21:36;18.70;;;14.33;;
830;SDS011;397;50.564;7.272;2023-03-01T09:24:04;18.50;;;14.70;;
830;SDS011;397;50.564;7.272;2023-03-01T09:26:32;19.93;;;15.27;;
830;SDS011;397;50.564;7.272;2023-03-01T09:29:00;19.73;;;15.70;;
830;SDS011;397;50.564;7.272;2023-03-01T09:31:28;19.10;;;15.37;;
830;SDS011;397;50.564;7.272;2023-03-01T09:33:55;19.60;;;16.90;;
830;SDS011;397;50.564;7.272;2023-03-01T09:36:23;19.47;;;15.97;;
830;SDS011;397;50.564;7.272;2023-03-01T09:38:51;18.47;;;16.30;;
830;SDS011;397;50.564;7.272;2023-03-01T09:44:27;18.03;;;16.13;;
830;SDS011;397;50.564;7.272;2023-03-01T09:46:59;30.87;;;19.57;;
830;SDS011;397;50.564;7.272;2023-03-01T09:49:29;22.03;;;17.10;;
830;SDS011;397;50.564;7.272;2023-03-01T09:55:08;19.47;;;16.50;;
830;SDS011;397;50.564;7.272;2023-03-01T09:57:54;17.30;;;15.53;;
830;SDS011;397;50.564;7.272;2023-03-01T10:00:26;20.87;;;16.50;;
830;SDS011;397;50.564;7.272;2023-03-01T10:02:59;21.63;;;18.00;;
830;SDS011;397;50.564;7.272;2023-03-01T10:05:35;19.93;;;17.50;;
830;SDS011;397;50.564;7.272;2023-03-01T10:10:52;19.97;;;17.20;;
830;SDS011;397;50.564;7.272;2023-03-01T10:13:29;19.30;;;15.63;;
830;SDS011;397;50.564;7.272;2023-03-01T10:16:15;20.90;;;18.70;;
830;SDS011;397;50.564;7.272;2023-03-01T10:18:47;18.60;;;15.73;;
830;SDS011;397;50.564;7.272;2023-03-01T10:21:17;19.40;;;16.43;;
830;SDS011;397;50.564;7.272;2023-03-01T10:23:49;21.87;;;17.37;;
830;SDS011;397;50.564;7.272;2023-03-01T10:26:34;17.50;;;15.67;;
830;SDS011;397;50.564;7.272;2023-03-01T10:29:02;20.20;;;15.53;;
830;SDS011;397;50.564;7.272;2023-03-01T10:31:39;19.50;;;16.27;;
830;SDS011;397;50.564;7.272;2023-03-01T10:34:18;19.03;;;15.37;;
830;SDS011;397;50.564;7.272;2023-03-01T10:36:51;17.30;;;15.50;;
830;SDS011;397;50.564;7.272;2023-03-01T10:39:22;22.60;;;16.27;;
830;SDS011;397;50.564;7.272;2023-03-01T10:41:57;16.93;;;14.10;;
830;SDS011;397;50.564;7.272;2023-03-01T10:47:14;17.30;;;14.37;;
830;SDS011;397;50.564;7.272;2023-03-01T10:49:56;14.43;;;12.87;;
830;SDS011;397;50.564;7.272;2023-03-01T10:52:23;16.93;;;14.27;;
830;SDS011;397;50.564;7.272;2023-03-01T10:54:53;19.00;;;15.17;;
830;SDS011;397;50.564;7.272;2023-03-01T10:57:29;14.17;;;12.67;;
830;SDS011;397;50.564;7.272;2023-03-01T11:02:50;17.17;;;13.00;;
830;SDS011;397;50.564;7.272;2023-03-01T11:05:21;18.83;;;13.67;;
830;SDS011;397;50.564;7.272;2023-03-01T11:07:55;16.63;;;13.37;;
830;SDS011;397;50.564;7.272;2023-03-01T11:10:27;18.57;;;12.57;;
830;SDS011;397;50.564;7.272;2023-03-01T11:13:08;16.03;;;12.70;;
830;SDS011;397;50.564;7.272;2023-03-01T11:15:33;17.47;;;13.50;;
830;SDS011;397;50.564;7.272;2023-03-01T11:18:01;16.30;;;12.60;;
830;SDS011;397;50.564;7.272;2023-03-01T11:20:31;18.40;;;13.13;;
830;SDS011;397;50.564;7.272;2023-03-01T11:23:04;13.83;;;12.43;;
830;SDS011;397;50.564;7.272;2023-03-01T11:25:39;16.27;;;14.63;;
830;SDS011;397;50.564;7.272;2023-03-01T11:28:05;16.00;;;13.60;;
830;SDS011;397;50.564;7.272;2023-03-01T11:30:40;14.67;;;12.77;;
830;SDS011;397;50.564;7.272;2023-03-01T11:35:50;14.20;;;11.87;;
830;SDS011;397;50.564;7.272;2023-03-01T11:38:26;12.50;;;10.53;;
830;SDS011;397;50.564;7.272;2023-03-01T11:43:52;15.00;;;13.23;;
830;SDS011;397;50.564;7.272;2023-03-01T11:49:24;15.83;;;14.20;;
830;SDS011;397;50.564;7.272;2023-03-01T11:54:35;17.23;;;12.53;;
830;SDS011;397;50.564;7.272;2023-03-01T11:57:20;18.33;;;14.10;;
830;SDS011;397;50.564;7.272;2023-03-01T12:00:06;15.00;;;12.03;;
830;SDS011;397;50.564;7.272;2023-03-01T12:08:14;14.57;;;11.07;;
830;SDS011;397;50.564;7.272;2023-03-01T12:10:45;11.53;;;10.27;;
830;SDS011;397;50.564;7.272;2023-03-01T12:16:31;15.80;;;12.40;;
830;SDS011;397;50.564;7.272;2023-03-01T12:19:01;12.33;;;10.17;;
830;SDS011;397;50.564;7.272;2023-03-01T12:21:48;11.30;;;9.93;;
830;SDS011;397;50.564;7.272;2023-03-01T12:29:52;11.03;;;9.60;;
830;SDS011;397;50.564;7.272;2023-03-01T12:37:45;11.03;;;9.83;;
830;SDS011;397;50.564;7.272;2023-03-01T12:40:35;11.47;;;9.57;;
830;SDS011;397;50.564;7.272;2023-03-01T12:43:17;11.00;;;9.60;;
830;SDS011;397;50.564;7.272;2023-03-01T12:51:15;11.63;;;9.07;;
830;SDS011;397;50.564;7.272;2023-03-01T12:53:50;10.87;;;9.37;;
830;SDS011;397;50.564;7.272;2023-03-01T12:56:38;12.60;;;9.43;;
830;SDS011;397;50.564;7.272;2023-03-01T13:07:37;12.90;;;8.93;;
830;SDS011;397;50.564;7.272;2023-03-01T13:15:26;11.03;;;8.10;;
830;SDS011;397;50.564;7.272;2023-03-01T13:18:02;10.23;;;7.73;;
830;SDS011;397;50.564;7.272;2023-03-01T13:33:49;8.60;;;7.80;;
830;SDS011;397;50.564;7.272;2023-03-01T13:39:13;10.80;;;7.40;;
830;SDS011;397;50.564;7.272;2023-03-01T13:52:24;19.33;;;13.40;;
830;SDS011;397;50.564;7.272;2023-03-01T13:54:53;9.63;;;7.27;;
830;SDS011;397;50.564;7.272;2023-03-01T13:57:24;16.13;;;10.67;;
830;SDS011;397;50.564;7.272;2023-03-01T13:59:53;10.50;;;7.10;;
830;SDS011;397;50.564;7.272;2023-03-01T14:02:21;9.30;;;6.57;;
830;SDS011;397;50.564;7.272;2023-03-01T14:04:58;9.60;;;6.80;;
830;SDS011;397;50.564;7.272;2023-03-01T14:07:27;9.03;;;6.10;;
830;SDS011;397;50.564;7.272;2023-03-01T14:09:59;11.90;;;7.87;;
830;SDS011;397;50.564;7.272;2023-03-01T14:12:37;7.30;;;5.77;;
830;SDS011;397;50.564;7.272;2023-03-01T14:15:15;17.50;;;10.83;;
830;SDS011;397;50.564;7.272;2023-03-01T14:17:43;18.80;;;13.93;;
830;SDS011;397;50.564;7.272;2023-03-01T14:20:16;14.87;;;11.20;;
830;SDS011;397;50.564;7.272;2023-03-01T14:22:45;10.57;;;7.23;;
830;SDS011;397;50.564;7.272;2023-03-01T14:28:02;11.07;;;7.10;;
830;SDS011;397;50.564;7.272;2023-03-01T14:30:36;13.97;;;7.20;;
830;SDS011;397;50.564;7.272;2023-03-01T14:33:02;18.40;;;13.50;;
830;SDS011;397;50.564;7.272;2023-03-01T14:35:33;11.40;;;8.20;;
830;SDS011;397;50.564;7.272;2023-03-01T14:38:02;17.60;;;14.20;;
830;SDS011;397;50.564;7.272;2023-03-01T14:40:35;9.80;;;8.37;;
830;SDS011;397;50.564;7.272;2023-03-01T14:43:01;11.00;;;8.93;;
830;SDS011;397;50.564;7.272;2023-03-01T14:45:31;9.40;;;7.53;;
830;SDS011;397;50.564;7.272;2023-03-01T14:47:59;7.70;;;5.70;;
830;SDS011;397;50.564;7.272;2023-03-01T14:50:29;12.40;;;9.57;;
830;SDS011;397;50.564;7.272;2023-03-01T14:52:59;5.80;;;5.30;;
830;SDS011;397;50.564;7.272;2023-03-01T14:55:30;15.97;;;9.00;;
830;SDS011;397;50.564;7.272;2023-03-01T14:58:11;8.23;;;5.97;;
830;SDS011;397;50.564;7.272;2023-03-01T15:00:43;6.23;;;4.90;;
830;SDS011;397;50.564;7.272;2023-03-01T15:03:32;7.50;;;6.13;;
830;SDS011;397;50.564;7.272;2023-03-01T15:06:05;8.00;;;6.60;;
830;SDS011;397;50.564;7.272;2023-03-01T15:08:35;9.40;;;5.70;;
830;SDS011;397;50.564;7.272;2023-03-01T15:11:04;10.50;;;7.23;;
830;SDS011;397;50.564;7.272;2023-03-01T15:13:50;8.17;;;6.13;;
830;SDS011;397;50.564;7.272;2023-03-01T15:18:58;6.67;;;5.20;;
830;SDS011;397;50.564;7.272;2023-03-01T15:21:25;8.30;;;5.10;;
830;SDS011;397;50.564;7.272;2023-03-01T15:23:58;7.20;;;4.80;;
830;SDS011;397;50.564;7.272;2023-03-01T15:26:43;8.20;;;6.13;;
830;SDS011;397;50.564;7.272;2023-03-01T15:29:13;6.70;;;5.27;;
830;SDS011;397;50.564;7.272;2023-03-01T15:31:40;8.20;;;5.63;;
830;SDS011;397;50.564;7.272;2023-03-01T15:34:27;5.83;;;5.10;;
830;SDS011;397;50.564;7.272;2023-03-01T15:36:51;5.20;;;4.60;;
830;SDS011;397;50.564;7.272;2023-03-01T15:39:39;7.93;;;5.60;;
830;SDS011;397;50.564;7.272;2023-03-01T15:42:35;6.93;;;5.00;;
830;SDS011;397;50.564;7.272;2023-03-01T15:44:41;9.00;;;5.20;;
830;SDS011;397;50.564;7.272;2023-03-01T15:47:27;6.63;;;5.10;;
830;SDS011;397;50.564;7.272;2023-03-01T15:49:56;5.70;;;4.47;;
830;SDS011;397;50.564;7.272;2023-03-01T15:52:27;7.80;;;5.90;;
830;SDS011;397;50.564;7.272;2023-03-01T15:55:03;8.03;;;5.33;;
830;SDS011;397;50.564;7.272;2023-03-01T15:57:27;7.80;;;4.00;;
830;SDS011;397;50.564;7.272;2023-03-01T15:59:55;6.57;;;5.37;;
830;SDS011;397;50.564;7.272;2023-03-01T16:02:23;5.90;;;4.50;;
830;SDS011;397;50.564;7.272;2023-03-01T16:04:51;5.90;;;4.10;;
830;SDS011;397;50.564;7.272;2023-03-01T16:07:19;5.47;;;4.20;;
830;SDS011;397;50.564;7.272;2023-03-01T16:09:47;5.57;;;4.40;;
830;SDS011;397;50.564;7.272;2023-03-01T16:12:14;7.50;;;5.60;;
830;SDS011;397;50.564;7.272;2023-03-01T16:14:43;7.87;;;5.70;;
830;SDS011;397;50.564;7.272;2023-03-01T16:17:10;8.30;;;5.20;;
830;SDS011;397;50.564;7.272;2023-03-01T16:19:39;6.03;;;4.83;;
830;SDS011;397;50.564;7.272;2023-03-01T16:22:08;7.63;;;5.40;;
830;SDS011;397;50.564;7.272;2023-03-01T16:24:36;9.20;;;5.40;;
830;SDS011;397;50.564;7.272;2023-03-01T16:27:04;9.23;;;5.27;;
830;SDS011;397;50.564;7.272;2023-03-01T16:29:31;6.97;;;4.83;;
830;SDS011;397;50.564;7.272;2023-03-01T16:32:02;8.00;;;5.50;;
830;SDS011;397;50.564;7.272;2023-03-01T16:34:29;5.30;;;4.43;;
830;SDS011;397;50.564;7.272;2023-03-01T16:36:57;6.50;;;4.70;;
830;SDS011;397;50.564;7.272;2023-03-01T16:39:24;5.73;;;4.30;;
830;SDS011;397;50.564;7.272;2023-03-01T16:41:52;9.30;;;5.90;;
830;SDS011;397;50.564;7.272;2023-03-01T16:44:19;9.63;;;5.27;;
830;SDS011;397;50.564;7.272;2023-03-01T16:46:48;8.00;;;5.17;;
830;SDS011;397;50.564;7.272;2023-03-01T16:49:15;6.83;;;5.03;;
830;SDS011;397;50.564;7.272;2023-03-01T16:51:43;5.70;;;4.70;;
830;SDS011;397;50.564;7.272;2023-03-01T16:54:10;8.07;;;5.97;;
830;SDS011;397;50.564;7.272;2023-03-01T16:56:38;7.10;;;5.27;;
830;SDS011;397;50.564;7.272;2023-03-01T16:59:06;7.10;;;5.47;;
830;SDS011;397;50.564;7.272;2023-03-01T17:01:36;6.93;;;5.67;;
830;SDS011;397;50.564;7.272;2023-03-01T17:04:06;10.10;;;7.30;;
830;SDS011;397;50.564;7.272;2023-03-01T17:06:35;23.60;;;17.20;;
830;SDS011;397;50.564;7.272;2023-03-01T17:09:03;18.00;;;10.80;;
830;SDS011;397;50.564;7.272;2023-03-01T17:11:30;7.03;;;5.80;;
830;SDS011;397;50.564;7.272;2023-03-01T17:13:58;9.50;;;5.93;;
830;SDS011;397;50.564;7.272;2023-03-01T17:16:25;6.80;;;5.80;;
830;SDS011;397;50.564;7.272;2023-03-01T17:18:52;11.47;;;5.90;;
830;SDS011;397;50.564;7.272;2023-03-01T17:21:20;20.00;;;12.83;;
830;SDS011;397;50.564;7.272;2023-03-01T17:23:48;10.97;;;8.20;;
830;SDS011;397;50.564;7.272;2023-03-01T17:26:16;17.80;;;14.27;;
830;SDS011;397;50.564;7.272;2023-03-01T17:28:44;25.80;;;18.07;;